createdAt,value
2019-05-23T00:02:21.471Z,5.00
2019-05-23T00:04:55.357Z,5.43
2019-05-23T00:07:25.289Z,5.80
2019-05-23T00:09:52.786Z,8.50
2019-05-23T00:12:39.783Z,9.50
2019-05-23T00:15:14.444Z,11.77
2019-05-23T00:17:42.125Z,12.30
2019-05-23T00:20:09.824Z,13.27
2019-05-23T00:22:37.556Z,12.00
2019-05-23T00:25:05.289Z,14.17
2019-05-23T00:27:33.457Z,13.20
2019-05-23T00:30:03.405Z,14.33
2019-05-23T00:32:35.476Z,12.20
2019-05-23T00:35:03.782Z,13.70
2019-05-23T00:37:32.356Z,13.20
2019-05-23T00:39:59.952Z,14.40
2019-05-23T00:42:29.057Z,14.97
2019-05-23T00:44:56.864Z,14.03
2019-05-23T00:47:25.280Z,13.40
2019-05-23T00:49:52.477Z,14.17
2019-05-23T00:52:20.780Z,13.43
2019-05-23T00:54:48.689Z,12.90
2019-05-23T00:57:16.574Z,13.93
2019-05-23T00:59:44.660Z,13.23
2019-05-23T01:02:11.957Z,12.90
2019-05-23T01:04:40.127Z,12.17
2019-05-23T01:07:09.081Z,11.27
2019-05-23T01:09:37.688Z,10.70
2019-05-23T01:12:05.313Z,10.40
2019-05-23T01:14:33.641Z,10.23
2019-05-23T01:17:01.228Z,10.50
2019-05-23T01:19:28.728Z,9.07
2019-05-23T01:21:58.565Z,9.00
2019-05-23T01:24:37.703Z,9.73
2019-05-23T01:27:06.506Z,8.50
2019-05-23T01:29:38.924Z,9.93
2019-05-23T01:32:13.975Z,9.87
2019-05-23T01:34:43.757Z,9.60
2019-05-23T01:37:11.355Z,10.67
2019-05-23T01:39:38.641Z,9.87
2019-05-23T01:42:06.523Z,8.77
2019-05-23T01:44:35.178Z,10.73
2019-05-23T01:47:03.177Z,9.77
2019-05-23T01:49:31.537Z,9.50
2019-05-23T01:52:00.681Z,10.07
2019-05-23T01:54:28.380Z,10.13
2019-05-23T01:56:56.182Z,10.37
2019-05-23T01:59:23.663Z,10.03
2019-05-23T02:01:52.573Z,9.90
2019-05-23T02:04:19.973Z,10.43
2019-05-23T02:06:47.598Z,10.70
2019-05-23T02:09:15.284Z,10.43
2019-05-23T02:11:42.675Z,11.50
2019-05-23T02:14:10.641Z,10.00
2019-05-23T02:16:38.951Z,11.20
2019-05-23T02:19:06.962Z,11.30
2019-05-23T02:21:34.562Z,10.73
2019-05-23T02:24:02.461Z,10.20
2019-05-23T02:26:30.356Z,11.53
2019-05-23T02:28:58.234Z,10.03
2019-05-23T02:31:25.429Z,10.63
2019-05-23T02:33:52.614Z,11.23
2019-05-23T02:36:19.934Z,10.80
2019-05-23T02:39:05.737Z,11.00
2019-05-23T02:41:45.330Z,11.17
2019-05-23T02:44:16.226Z,11.60
2019-05-23T02:47:02.448Z,12.27
2019-05-23T02:49:32.916Z,12.20
2019-05-23T02:52:14.857Z,13.13
2019-05-23T02:54:42.262Z,13.33
2019-05-23T02:57:10.253Z,11.60
2019-05-23T02:59:51.421Z,13.40
2019-05-23T03:02:44.971Z,13.90
2019-05-23T03:05:16.736Z,14.00
2019-05-23T03:07:44.532Z,14.00
2019-05-23T03:10:13.225Z,13.53
2019-05-23T03:12:42.921Z,14.80
2019-05-23T03:15:12.441Z,14.47
2019-05-23T03:17:44.687Z,14.60
2019-05-23T03:20:12.694Z,13.50
2019-05-23T03:23:07.838Z,14.60
2019-05-23T03:26:14.940Z,15.10
2019-05-23T03:28:42.293Z,15.93
2019-05-23T03:31:28.817Z,15.33
2019-05-23T03:33:45.262Z,16.07
2019-05-23T03:36:12.476Z,17.13
2019-05-23T03:38:40.380Z,17.60
2019-05-23T03:41:08.233Z,17.70
2019-05-23T03:43:36.004Z,18.63
2019-05-23T03:46:06.350Z,19.43
2019-05-23T03:48:34.126Z,20.27
2019-05-23T03:51:02.209Z,20.80
2019-05-23T03:53:31.212Z,19.90
2019-05-23T03:55:58.858Z,22.33
2019-05-23T03:58:29.148Z,19.27
2019-05-23T04:00:58.450Z,21.53
2019-05-23T04:03:26.456Z,20.60
2019-05-23T04:05:54.434Z,19.70
2019-05-23T04:08:22.842Z,20.10
2019-05-23T04:10:51.823Z,21.50
2019-05-23T04:13:19.854Z,21.83
2019-05-23T04:15:47.548Z,20.63
2019-05-23T04:18:14.746Z,19.87
2019-05-23T04:20:42.527Z,20.90
2019-05-23T04:23:10.809Z,20.87
2019-05-23T04:25:38.310Z,21.67
2019-05-23T04:28:05.792Z,21.83
2019-05-23T04:30:33.261Z,23.00
2019-05-23T04:33:01.080Z,21.30
2019-05-23T04:35:28.349Z,20.20
2019-05-23T04:37:56.481Z,21.90
2019-05-23T04:40:23.673Z,22.17
2019-05-23T04:42:51.000Z,20.47
2019-05-23T04:45:18.950Z,22.50
2019-05-23T04:47:46.174Z,20.77
2019-05-23T04:50:15.646Z,21.30
2019-05-23T04:52:43.046Z,20.80
2019-05-23T04:55:12.254Z,20.43
2019-05-23T04:57:40.087Z,19.73
2019-05-23T05:00:08.712Z,18.03
2019-05-23T05:02:36.026Z,18.73
2019-05-23T05:05:04.636Z,19.60
2019-05-23T05:07:31.827Z,18.47
2019-05-23T05:09:59.365Z,17.80
2019-05-23T05:12:26.833Z,20.00
2019-05-23T05:14:54.835Z,18.57
2019-05-23T05:17:22.653Z,17.70
2019-05-23T05:19:49.931Z,18.40
2019-05-23T05:22:17.804Z,18.10
2019-05-23T05:24:45.531Z,17.67
2019-05-23T05:27:14.405Z,16.80
2019-05-23T05:29:41.606Z,17.40
2019-05-23T05:32:09.276Z,17.47
2019-05-23T05:34:36.608Z,17.23
2019-05-23T05:37:03.899Z,16.83
2019-05-23T05:39:31.373Z,16.07
2019-05-23T05:41:59.220Z,15.27
2019-05-23T05:44:26.443Z,15.17
2019-05-23T05:46:53.883Z,15.50
2019-05-23T05:49:21.818Z,15.97
2019-05-23T05:51:49.477Z,14.77
2019-05-23T05:54:16.682Z,16.03
2019-05-23T05:56:44.052Z,15.57
2019-05-23T05:59:11.566Z,14.60
2019-05-23T06:01:39.632Z,15.40
2019-05-23T06:04:07.435Z,14.93
2019-05-23T06:06:42.713Z,12.67
2019-05-23T06:09:15.025Z,11.00
2019-05-23T06:11:42.414Z,10.87
2019-05-23T06:14:09.721Z,9.90
2019-05-23T06:16:37.420Z,10.90
2019-05-23T06:19:05.600Z,9.00
2019-05-23T06:21:34.054Z,9.73
2019-05-23T06:24:01.229Z,9.33
2019-05-23T06:26:28.592Z,9.67
2019-05-23T06:28:56.085Z,10.03
2019-05-23T06:31:24.085Z,9.90
2019-05-23T06:33:51.969Z,10.60
2019-05-23T06:36:19.180Z,10.97
2019-05-23T06:38:46.581Z,10.23
2019-05-23T06:41:14.177Z,10.63
2019-05-23T06:43:41.516Z,11.47
2019-05-23T06:46:08.708Z,9.60
2019-05-23T06:48:36.297Z,10.80
2019-05-23T06:51:03.785Z,9.70
2019-05-23T06:53:33.912Z,11.20
2019-05-23T06:56:01.110Z,10.20
2019-05-23T06:58:28.914Z,10.67
2019-05-23T07:00:56.336Z,9.37
2019-05-23T07:03:40.611Z,10.83
2019-05-23T07:05:54.106Z,10.07
2019-05-23T07:08:25.417Z,9.63
2019-05-23T07:10:52.700Z,9.90
2019-05-23T07:13:20.285Z,8.70
2019-05-23T07:15:47.684Z,8.13
2019-05-23T07:18:15.126Z,8.00
2019-05-23T07:20:42.326Z,9.43
2019-05-23T07:23:11.087Z,8.37
2019-05-23T07:25:38.310Z,8.77
2019-05-23T07:28:05.905Z,8.40
2019-05-23T07:30:33.584Z,8.87
2019-05-23T07:33:00.765Z,7.80
2019-05-23T07:35:27.984Z,9.00
2019-05-23T07:37:55.387Z,7.93
2019-05-23T07:40:25.337Z,8.17
2019-05-23T07:42:52.581Z,8.53
2019-05-23T07:45:24.608Z,7.03
2019-05-23T07:47:52.394Z,7.83
2019-05-23T07:50:20.681Z,7.60
2019-05-23T07:52:48.363Z,7.60
2019-05-23T07:55:23.360Z,6.87
2019-05-23T07:57:50.796Z,9.27
2019-05-23T08:00:23.204Z,7.63
2019-05-23T08:02:51.564Z,7.23
2019-05-23T08:05:19.840Z,6.67
2019-05-23T08:07:47.178Z,7.33
2019-05-23T08:10:30.888Z,8.13
2019-05-23T08:12:44.009Z,6.90
2019-05-23T08:15:11.812Z,7.73
2019-05-23T08:17:39.407Z,6.90
2019-05-23T08:20:08.116Z,6.73
2019-05-23T08:22:35.314Z,7.17
2019-05-23T08:25:03.281Z,6.67
2019-05-23T08:27:30.660Z,6.47
2019-05-23T08:29:57.840Z,6.40
2019-05-23T08:32:25.048Z,6.53
2019-05-23T08:34:52.619Z,6.93
2019-05-23T08:37:20.169Z,7.10
2019-05-23T08:39:48.065Z,7.10
2019-05-23T08:42:16.549Z,6.90
2019-05-23T08:44:44.570Z,6.60
2019-05-23T08:47:12.553Z,5.50
2019-05-23T08:49:39.781Z,7.10
2019-05-23T08:52:07.485Z,6.00
2019-05-23T08:54:35.019Z,5.67
2019-05-23T08:57:03.728Z,6.10
2019-05-23T08:59:31.238Z,5.10
2019-05-23T09:01:58.852Z,5.60
2019-05-23T09:04:26.399Z,5.23
2019-05-23T09:06:54.978Z,5.13
2019-05-23T09:09:29.569Z,5.43
2019-05-23T09:11:52.463Z,5.30
2019-05-23T09:14:19.965Z,5.07
2019-05-23T09:16:47.316Z,4.93
2019-05-23T09:19:14.762Z,4.70
2019-05-23T09:21:42.318Z,5.57
2019-05-23T09:24:10.843Z,4.80
2019-05-23T09:26:38.300Z,5.97
2019-05-23T09:29:06.985Z,5.70
2019-05-23T09:31:34.418Z,5.33
2019-05-23T09:34:01.593Z,6.50
2019-05-23T09:36:28.805Z,4.70
2019-05-23T09:38:56.025Z,4.93
2019-05-23T09:41:23.237Z,4.63
2019-05-23T09:43:50.433Z,5.47
2019-05-23T09:46:17.740Z,4.37
2019-05-23T09:48:45.404Z,4.87
2019-05-23T09:51:13.327Z,5.10
2019-05-23T09:53:46.346Z,4.73
2019-05-23T09:56:09.833Z,5.23
2019-05-23T09:58:37.144Z,5.37
2019-05-23T10:01:05.182Z,5.60
2019-05-23T10:03:32.393Z,5.30
2019-05-23T10:05:59.705Z,5.90
2019-05-23T10:08:26.929Z,5.83
2019-05-23T10:10:54.215Z,5.67
2019-05-23T10:13:37.850Z,5.77
2019-05-23T10:16:04.110Z,5.90
2019-05-23T10:18:31.508Z,5.50
2019-05-23T10:20:59.021Z,6.13
2019-05-23T10:23:26.336Z,5.97
2019-05-23T10:25:53.613Z,6.70
2019-05-23T10:28:20.912Z,5.97
2019-05-23T10:30:48.425Z,6.87
2019-05-23T10:33:15.958Z,6.50
2019-05-23T10:35:59.214Z,5.83
2019-05-23T10:38:12.652Z,6.50
2019-05-23T10:40:40.287Z,5.80
2019-05-23T10:43:08.920Z,6.40
2019-05-23T10:45:36.321Z,7.50
2019-05-23T10:48:04.921Z,6.30
2019-05-23T10:50:44.207Z,5.90
2019-05-23T10:53:02.239Z,6.20
2019-05-23T10:55:29.639Z,6.20
2019-05-23T10:57:56.831Z,7.10
2019-05-23T11:00:25.441Z,6.73
2019-05-23T11:02:53.512Z,7.47
2019-05-23T11:05:21.265Z,7.00
2019-05-23T11:07:49.200Z,6.80
2019-05-23T11:10:17.652Z,6.50
2019-05-23T11:12:45.389Z,7.37
2019-05-23T11:15:13.030Z,6.20
2019-05-23T11:17:40.462Z,6.57
2019-05-23T11:20:09.675Z,8.00
2019-05-23T11:22:36.957Z,7.17
2019-05-23T11:25:06.373Z,7.00
2019-05-23T11:27:33.780Z,7.03
2019-05-23T11:30:01.241Z,7.30
2019-05-23T11:32:29.061Z,6.80
2019-05-23T11:34:56.245Z,7.90
2019-05-23T11:37:23.610Z,6.70
2019-05-23T11:39:51.507Z,6.77
2019-05-23T11:42:19.268Z,6.03
2019-05-23T11:44:46.560Z,6.40
2019-05-23T11:47:15.070Z,6.87
2019-05-23T11:49:43.898Z,6.70
2019-05-23T11:52:11.984Z,7.33
2019-05-23T11:54:40.265Z,6.60
2019-05-23T11:57:08.466Z,5.90
2019-05-23T11:59:35.663Z,5.93
2019-05-23T12:02:18.963Z,6.07
2019-05-23T12:04:46.178Z,5.80
2019-05-23T12:07:17.704Z,6.67
2019-05-23T12:09:45.238Z,6.63
2019-05-23T12:12:12.493Z,5.50
2019-05-23T12:14:40.445Z,6.93
2019-05-23T12:17:07.861Z,6.50
2019-05-23T12:19:35.072Z,5.93
2019-05-23T12:22:02.526Z,6.47
2019-05-23T12:24:34.796Z,6.10
2019-05-23T12:26:59.270Z,5.80
2019-05-23T12:29:26.629Z,5.53
2019-05-23T12:31:54.040Z,6.33
2019-05-23T12:34:21.269Z,5.67
2019-05-23T12:36:48.492Z,5.37
2019-05-23T12:39:15.725Z,5.50
2019-05-23T12:41:42.959Z,4.43
2019-05-23T12:44:19.013Z,4.90
2019-05-23T12:46:47.224Z,4.80
2019-05-23T12:49:21.211Z,4.40
2019-05-23T12:51:49.024Z,4.93
2019-05-23T12:54:16.192Z,5.67
2019-05-23T12:56:48.618Z,4.97
2019-05-23T12:59:13.888Z,4.60
2019-05-23T13:01:43.415Z,4.27
2019-05-23T13:04:11.448Z,5.10
2019-05-23T13:06:39.168Z,4.30
2019-05-23T13:09:08.309Z,4.67
2019-05-23T13:11:35.603Z,4.60
2019-05-23T13:14:03.678Z,4.20
2019-05-23T13:16:31.106Z,5.17
2019-05-23T13:18:58.432Z,4.27
2019-05-23T13:21:25.737Z,3.40
2019-05-23T13:23:52.945Z,3.13
2019-05-23T13:26:20.566Z,3.60
2019-05-23T13:28:48.073Z,3.60
2019-05-23T13:31:15.272Z,3.27
2019-05-23T13:33:42.661Z,3.50
2019-05-23T13:36:10.049Z,3.70
2019-05-23T13:38:38.068Z,2.90
2019-05-23T13:41:05.380Z,3.13
2019-05-23T13:43:33.108Z,2.63
2019-05-23T13:46:00.322Z,2.70
2019-05-23T13:48:28.476Z,3.27
2019-05-23T13:50:56.144Z,3.73
2019-05-23T13:53:23.553Z,2.70
2019-05-23T13:55:52.090Z,2.47
2019-05-23T13:58:19.689Z,2.83
2019-05-23T14:00:48.137Z,2.60
2019-05-23T14:03:15.529Z,2.20
2019-05-23T14:05:42.737Z,1.87
2019-05-23T14:08:12.762Z,1.83
2019-05-23T14:10:39.580Z,1.90
2019-05-23T14:13:06.781Z,2.00
2019-05-23T14:15:39.036Z,2.57
2019-05-23T14:18:06.353Z,2.30
2019-05-23T14:20:33.972Z,2.10
2019-05-23T14:23:07.082Z,3.73
2019-05-23T14:25:35.101Z,2.20
2019-05-23T14:28:22.162Z,2.00
2019-05-23T14:31:00.680Z,1.87
2019-05-23T14:33:46.122Z,2.30
2019-05-23T14:36:19.177Z,1.90
2019-05-23T14:38:47.083Z,1.80
2019-05-23T14:41:14.369Z,2.10
2019-05-23T14:43:42.253Z,2.10
2019-05-23T14:46:14.069Z,4.40
2019-05-23T14:49:01.223Z,2.67
2019-05-23T14:51:47.017Z,1.93
2019-05-23T14:54:18.390Z,2.10
2019-05-23T14:56:47.057Z,2.10
2019-05-23T14:59:14.549Z,2.30
2019-05-23T15:01:42.754Z,3.07
2019-05-23T15:04:10.144Z,1.77
2019-05-23T15:06:37.630Z,1.83
2019-05-23T15:09:06.616Z,2.33
2019-05-23T15:11:34.217Z,2.37
2019-05-23T15:14:01.416Z,1.90
2019-05-23T15:16:28.709Z,3.00
2019-05-23T15:18:55.985Z,2.50
2019-05-23T15:21:23.828Z,2.27
2019-05-23T15:23:51.011Z,2.30
2019-05-23T15:26:22.929Z,3.10
2019-05-23T15:28:47.287Z,3.97
2019-05-23T15:31:14.569Z,3.17
2019-05-23T15:33:41.876Z,3.43
2019-05-23T15:36:09.169Z,3.00
2019-05-23T15:38:36.334Z,2.57
2019-05-23T15:41:03.925Z,3.90
2019-05-23T15:43:31.118Z,3.00
2019-05-23T15:45:58.437Z,3.10
2019-05-23T15:48:25.635Z,3.33
2019-05-23T15:50:52.901Z,3.53
2019-05-23T15:53:46.400Z,4.17
2019-05-23T15:56:31.740Z,4.30
2019-05-23T15:59:19.419Z,4.17
2019-05-23T16:02:12.154Z,4.10
2019-05-23T16:04:40.868Z,4.87
2019-05-23T16:07:09.372Z,4.20
2019-05-23T16:09:36.723Z,4.43
2019-05-23T16:12:04.031Z,5.53
2019-05-23T16:14:31.613Z,4.73
2019-05-23T16:16:58.915Z,4.70
2019-05-23T16:19:26.296Z,4.77
2019-05-23T16:21:53.537Z,4.63
2019-05-23T16:24:21.141Z,5.77
2019-05-23T16:26:48.726Z,4.83
2019-05-23T16:29:16.495Z,4.33
2019-05-23T16:31:44.324Z,5.20
2019-05-23T16:34:11.509Z,4.70
2019-05-23T16:36:38.888Z,5.43
2019-05-23T16:39:06.800Z,4.47
2019-05-23T16:41:33.984Z,5.60
2019-05-23T16:44:01.184Z,4.80
2019-05-23T16:46:28.503Z,5.20
2019-05-23T16:48:55.853Z,5.53
2019-05-23T16:51:23.153Z,4.97
2019-05-23T16:53:50.932Z,4.70
2019-05-23T16:56:49.458Z,4.10
2019-05-23T16:59:40.982Z,5.00
2019-05-23T17:02:39.677Z,4.43
2019-05-23T17:05:31.188Z,5.10
2019-05-23T17:08:33.107Z,4.50
2019-05-23T17:11:12.020Z,5.30
2019-05-23T17:13:46.357Z,4.33
2019-05-23T17:16:32.098Z,4.20
2019-05-23T17:19:10.125Z,5.37
2019-05-23T17:21:57.166Z,4.57
2019-05-23T17:24:47.351Z,6.17
2019-05-23T17:27:43.165Z,5.70
2019-05-23T17:30:28.908Z,5.33
2019-05-23T17:32:57.406Z,5.00
2019-05-23T17:35:24.824Z,4.43
2019-05-23T17:37:52.162Z,4.70
2019-05-23T17:40:24.927Z,5.83
2019-05-23T17:42:48.740Z,5.50
2019-05-23T17:45:16.477Z,5.67
2019-05-23T17:47:45.203Z,6.27
2019-05-23T17:50:12.392Z,5.67
2019-05-23T17:52:39.572Z,6.27
2019-05-23T17:55:07.089Z,5.80
2019-05-23T17:57:34.369Z,5.53
2019-05-23T18:00:03.217Z,5.20
2019-05-23T18:02:31.302Z,4.83
2019-05-23T18:04:58.472Z,5.13
2019-05-23T18:07:25.857Z,6.10
2019-05-23T18:09:53.276Z,6.10
2019-05-23T18:12:20.880Z,5.90
2019-05-23T18:14:48.084Z,6.73
2019-05-23T18:17:15.380Z,7.50
2019-05-23T18:19:42.566Z,11.17
2019-05-23T18:22:12.160Z,8.73
2019-05-23T18:24:39.456Z,7.20
2019-05-23T18:27:08.396Z,6.23
2019-05-23T18:29:35.668Z,49.30
2019-05-23T18:32:05.994Z,59.10
2019-05-23T18:34:33.489Z,81.77
2019-05-23T18:37:01.113Z,11.90
2019-05-23T18:39:29.002Z,13.90
2019-05-23T18:41:56.299Z,10.97
2019-05-23T18:44:23.504Z,6.10
2019-05-23T18:46:53.401Z,6.67
2019-05-23T18:49:20.987Z,5.60
2019-05-23T18:51:48.680Z,5.83
2019-05-23T18:54:15.982Z,5.80
2019-05-23T18:56:43.479Z,4.87
2019-05-23T18:59:10.857Z,5.33
2019-05-23T19:01:38.068Z,5.23
2019-05-23T19:04:05.439Z,5.50
2019-05-23T19:06:33.266Z,5.10
2019-05-23T19:09:00.556Z,7.03
2019-05-23T19:11:27.889Z,5.83
2019-05-23T19:13:55.184Z,5.53
2019-05-23T19:16:22.667Z,5.70
2019-05-23T19:18:50.149Z,5.70
2019-05-23T19:21:18.870Z,5.60
2019-05-23T19:23:46.405Z,5.50
2019-05-23T19:26:14.312Z,5.00
2019-05-23T19:28:42.522Z,5.47
2019-05-23T19:31:10.520Z,6.27
2019-05-23T19:33:38.952Z,7.57
2019-05-23T19:36:06.787Z,17.47
2019-05-23T19:38:34.320Z,13.73
2019-05-23T19:41:01.970Z,10.77
2019-05-23T19:43:29.678Z,9.43
2019-05-23T19:45:56.957Z,7.93
2019-05-23T19:48:24.946Z,6.80
2019-05-23T19:50:53.412Z,6.33
2019-05-23T19:53:20.920Z,6.20
2019-05-23T19:55:48.279Z,6.37
2019-05-23T19:58:16.259Z,6.30
2019-05-23T20:00:44.833Z,6.70
2019-05-23T20:03:12.681Z,7.87
2019-05-23T20:05:40.991Z,6.90
2019-05-23T20:08:08.604Z,6.10
2019-05-23T20:10:36.938Z,6.07
2019-05-23T20:13:04.908Z,6.37
2019-05-23T20:15:32.470Z,6.50
2019-05-23T20:17:59.996Z,6.00
2019-05-23T20:20:28.536Z,5.40
2019-05-23T20:22:55.995Z,7.13
2019-05-23T20:25:24.177Z,7.63
2019-05-23T20:27:51.554Z,7.70
2019-05-23T20:30:59.827Z,7.90
2019-05-23T20:33:28.018Z,8.57
2019-05-23T20:35:55.409Z,8.20
2019-05-23T20:38:24.056Z,8.50
2019-05-23T20:40:51.395Z,7.73
2019-05-23T20:43:18.751Z,8.80
2019-05-23T20:45:46.083Z,8.30
2019-05-23T20:48:13.397Z,8.30
2019-05-23T20:50:40.707Z,6.37
2019-05-23T20:53:07.979Z,6.50
2019-05-23T20:55:35.348Z,5.27
2019-05-23T20:58:02.865Z,8.63
2019-05-23T21:00:50.433Z,11.00
2019-05-23T21:03:20.007Z,7.67
2019-05-23T21:05:48.419Z,7.30
2019-05-23T21:08:15.719Z,9.50
2019-05-23T21:10:46.168Z,12.93
2019-05-23T21:13:13.432Z,30.30
2019-05-23T21:15:41.105Z,8.57
2019-05-23T21:18:08.907Z,6.87
2019-05-23T21:20:36.251Z,5.43
2019-05-23T21:23:03.542Z,6.57
2019-05-23T21:25:31.815Z,6.47
2019-05-23T21:27:59.215Z,5.90
2019-05-23T21:30:27.164Z,6.03
2019-05-23T21:32:54.555Z,7.03
2019-05-23T21:35:21.887Z,7.30
2019-05-23T21:37:49.157Z,6.73
2019-05-23T21:40:30.890Z,5.83
2019-05-23T21:42:58.359Z,6.77
2019-05-23T21:45:25.817Z,6.50
2019-05-23T21:47:53.073Z,7.40
2019-05-23T21:50:20.667Z,6.40
2019-05-23T21:52:47.965Z,6.43
2019-05-23T21:55:19.279Z,5.70
2019-05-23T21:57:46.485Z,6.40
2019-05-23T22:00:19.733Z,8.20
2019-05-23T22:02:47.010Z,10.00
2019-05-23T22:05:16.286Z,11.33
2019-05-23T22:07:43.693Z,12.30
2019-05-23T22:10:11.222Z,13.83
2019-05-23T22:12:39.321Z,15.90
2019-05-23T22:15:06.612Z,14.93
2019-05-23T22:17:33.924Z,10.20
2019-05-23T22:20:01.180Z,7.23
2019-05-23T22:22:28.376Z,5.87
2019-05-23T22:24:55.571Z,6.27
2019-05-23T22:27:22.982Z,6.43
2019-05-23T22:29:50.275Z,6.27
2019-05-23T22:32:19.569Z,6.57
2019-05-23T22:34:52.056Z,5.50
2019-05-23T22:37:26.693Z,6.57
2019-05-23T22:39:53.885Z,5.70
2019-05-23T22:42:21.835Z,5.90
2019-05-23T22:44:49.385Z,5.80
2019-05-23T22:47:16.769Z,6.80
2019-05-23T22:49:44.049Z,5.93
2019-05-23T22:52:11.233Z,5.90
2019-05-23T22:54:38.442Z,5.50
2019-05-23T22:57:05.617Z,6.93
2019-05-23T22:59:33.476Z,5.83
2019-05-23T23:02:00.764Z,5.93
2019-05-23T23:04:27.956Z,5.97
2019-05-23T23:06:56.055Z,6.27
2019-05-23T23:09:23.300Z,6.87
2019-05-23T23:11:50.554Z,6.00
2019-05-23T23:14:17.837Z,6.60
2019-05-23T23:16:45.520Z,6.30
2019-05-23T23:19:12.759Z,10.50
2019-05-23T23:21:40.409Z,7.20
2019-05-23T23:24:07.612Z,26.00
2019-05-23T23:26:34.797Z,19.30
2019-05-23T23:29:02.178Z,11.47
2019-05-23T23:31:29.475Z,8.20
2019-05-23T23:33:56.753Z,6.23
2019-05-23T23:36:23.925Z,6.87
2019-05-23T23:38:51.183Z,8.27
2019-05-23T23:41:18.431Z,10.03
2019-05-23T23:43:58.733Z,7.00
2019-05-23T23:46:32.725Z,6.63
2019-05-23T23:49:17.821Z,6.50
2019-05-23T23:52:03.252Z,6.00
2019-05-23T23:54:48.281Z,5.70
2019-05-23T23:57:34.077Z,6.00
